sensor_id;sensor_type;location;lat;lon;timestamp;P1;durP1;ratioP1;P2;durP2;ratioP2
41343;SDS011;27089;50.022;7.604;2023-05-10T00:01:35;0.60;;;0.50;;
41343;SDS011;27089;50.022;7.604;2023-05-10T00:04:02;2.40;;;0.50;;
41343;SDS011;27089;50.022;7.604;2023-05-10T00:06:29;0.60;;;0.60;;
41343;SDS011;27089;50.022;7.604;2023-05-10T00:08:56;0.50;;;0.40;;
41343;SDS011;27089;50.022;7.604;2023-05-10T00:11:23;0.50;;;0.50;;
41343;SDS011;27089;50.022;7.604;2023-05-10T00:13:52;1.77;;;0.60;;
41343;SDS011;27089;50.022;7.604;2023-05-10T00:16:19;1.23;;;0.43;;
41343;SDS011;27089;50.022;7.604;2023-05-10T00:18:46;0.73;;;0.60;;
41343;SDS011;27089;50.022;7.604;2023-05-10T00:21:13;0.60;;;0.60;;
41343;SDS011;27089;50.022;7.604;2023-05-10T00:23:40;0.70;;;0.70;;
41343;SDS011;27089;50.022;7.604;2023-05-10T00:26:07;0.60;;;0.60;;
41343;SDS011;27089;50.022;7.604;2023-05-10T00:28:34;0.60;;;0.60;;
41343;SDS011;27089;50.022;7.604;2023-05-10T00:31:02;1.97;;;0.83;;
41343;SDS011;27089;50.022;7.604;2023-05-10T00:33:30;1.27;;;0.90;;
41343;SDS011;27089;50.022;7.604;2023-05-10T00:35:57;1.60;;;0.90;;
41343;SDS011;27089;50.022;7.604;2023-05-10T00:38:24;0.87;;;0.80;;
41343;SDS011;27089;50.022;7.604;2023-05-10T00:40:51;0.90;;;0.80;;
41343;SDS011;27089;50.022;7.604;2023-05-10T00:43:18;1.10;;;1.00;;
41343;SDS011;27089;50.022;7.604;2023-05-10T00:45:44;0.73;;;0.70;;
41343;SDS011;27089;50.022;7.604;2023-05-10T00:48:13;0.80;;;0.80;;
41343;SDS011;27089;50.022;7.604;2023-05-10T00:50:40;0.80;;;0.80;;
41343;SDS011;27089;50.022;7.604;2023-05-10T00:53:07;2.00;;;0.87;;
41343;SDS011;27089;50.022;7.604;2023-05-10T00:55:35;1.70;;;0.87;;
41343;SDS011;27089;50.022;7.604;2023-05-10T00:58:02;0.93;;;0.80;;
41343;SDS011;27089;50.022;7.604;2023-05-10T01:00:30;1.10;;;1.00;;
41343;SDS011;27089;50.022;7.604;2023-05-10T01:02:58;1.23;;;1.13;;
41343;SDS011;27089;50.022;7.604;2023-05-10T01:05:27;2.17;;;1.20;;
41343;SDS011;27089;50.022;7.604;2023-05-10T01:07:55;2.40;;;1.23;;
41343;SDS011;27089;50.022;7.604;2023-05-10T01:10:22;1.40;;;1.30;;
41343;SDS011;27089;50.022;7.604;2023-05-10T01:12:49;1.50;;;1.40;;
41343;SDS011;27089;50.022;7.604;2023-05-10T01:15:17;3.07;;;1.20;;
41343;SDS011;27089;50.022;7.604;2023-05-10T01:17:46;1.40;;;1.30;;
41343;SDS011;27089;50.022;7.604;2023-05-10T01:20:14;1.90;;;1.40;;
41343;SDS011;27089;50.022;7.604;2023-05-10T01:25:50;1.70;;;1.60;;
41343;SDS011;27089;50.022;7.604;2023-05-10T01:34:34;1.60;;;1.50;;
41343;SDS011;27089;50.022;7.604;2023-05-10T01:37:06;1.80;;;1.50;;
41343;SDS011;27089;50.022;7.604;2023-05-10T01:39:39;1.67;;;1.53;;
41343;SDS011;27089;50.022;7.604;2023-05-10T01:42:14;2.83;;;1.60;;
41343;SDS011;27089;50.022;7.604;2023-05-10T01:44:47;2.43;;;1.60;;
41343;SDS011;27089;50.022;7.604;2023-05-10T01:47:23;2.80;;;2.10;;
41343;SDS011;27089;50.022;7.604;2023-05-10T01:49:57;6.73;;;2.40;;
41343;SDS011;27089;50.022;7.604;2023-05-10T01:52:30;2.23;;;2.03;;
41343;SDS011;27089;50.022;7.604;2023-05-10T01:55:01;2.40;;;2.20;;
41343;SDS011;27089;50.022;7.604;2023-05-10T01:57:32;3.30;;;2.23;;
41343;SDS011;27089;50.022;7.604;2023-05-10T02:00:01;5.13;;;2.40;;
41343;SDS011;27089;50.022;7.604;2023-05-10T02:02:29;2.63;;;2.43;;
41343;SDS011;27089;50.022;7.604;2023-05-10T02:05:00;2.93;;;2.47;;
41343;SDS011;27089;50.022;7.604;2023-05-10T02:07:31;2.90;;;2.60;;
41343;SDS011;27089;50.022;7.604;2023-05-10T02:10:00;3.93;;;2.37;;
41343;SDS011;27089;50.022;7.604;2023-05-10T02:12:29;3.00;;;2.70;;
41343;SDS011;27089;50.022;7.604;2023-05-10T02:14:58;4.20;;;3.07;;
41343;SDS011;27089;50.022;7.604;2023-05-10T02:17:28;4.67;;;2.73;;
41343;SDS011;27089;50.022;7.604;2023-05-10T02:19:56;3.30;;;3.00;;
41343;SDS011;27089;50.022;7.604;2023-05-10T02:22:27;3.43;;;2.83;;
41343;SDS011;27089;50.022;7.604;2023-05-10T02:24:55;4.13;;;3.10;;
41343;SDS011;27089;50.022;7.604;2023-05-10T02:27:24;3.87;;;2.93;;
41343;SDS011;27089;50.022;7.604;2023-05-10T02:29:52;3.40;;;3.10;;
41343;SDS011;27089;50.022;7.604;2023-05-10T02:32:20;3.47;;;3.13;;
41343;SDS011;27089;50.022;7.604;2023-05-10T02:34:48;5.20;;;2.93;;
41343;SDS011;27089;50.022;7.604;2023-05-10T02:37:17;3.97;;;2.77;;
41343;SDS011;27089;50.022;7.604;2023-05-10T02:39:47;5.30;;;3.10;;
41343;SDS011;27089;50.022;7.604;2023-05-10T02:42:16;5.10;;;2.80;;
41343;SDS011;27089;50.022;7.604;2023-05-10T02:44:45;3.60;;;2.70;;
41343;SDS011;27089;50.022;7.604;2023-05-10T02:47:15;3.27;;;2.97;;
41343;SDS011;27089;50.022;7.604;2023-05-10T02:49:42;4.83;;;3.13;;
41343;SDS011;27089;50.022;7.604;2023-05-10T02:52:09;4.37;;;2.70;;
41343;SDS011;27089;50.022;7.604;2023-05-10T02:54:38;2.63;;;2.43;;
41343;SDS011;27089;50.022;7.604;2023-05-10T02:57:13;4.60;;;2.80;;
41343;SDS011;27089;50.022;7.604;2023-05-10T02:59:44;3.40;;;2.67;;
41343;SDS011;27089;50.022;7.604;2023-05-10T03:02:11;4.23;;;2.30;;
41343;SDS011;27089;50.022;7.604;2023-05-10T03:04:39;3.90;;;2.90;;
41343;SDS011;27089;50.022;7.604;2023-05-10T03:07:06;4.93;;;2.93;;
41343;SDS011;27089;50.022;7.604;2023-05-10T03:09:33;4.10;;;3.10;;
41343;SDS011;27089;50.022;7.604;2023-05-10T03:12:02;6.63;;;3.40;;
41343;SDS011;27089;50.022;7.604;2023-05-10T03:14:39;4.57;;;3.43;;
41343;SDS011;27089;50.022;7.604;2023-05-10T03:17:15;5.53;;;3.37;;
41343;SDS011;27089;50.022;7.604;2023-05-10T03:19:51;6.13;;;3.00;;
41343;SDS011;27089;50.022;7.604;2023-05-10T03:22:21;5.97;;;3.67;;
41343;SDS011;27089;50.022;7.604;2023-05-10T03:24:51;4.67;;;3.60;;
41343;SDS011;27089;50.022;7.604;2023-05-10T03:27:22;5.60;;;3.13;;
41343;SDS011;27089;50.022;7.604;2023-05-10T03:29:51;4.67;;;3.93;;
41343;SDS011;27089;50.022;7.604;2023-05-10T03:32:19;6.27;;;3.90;;
41343;SDS011;27089;50.022;7.604;2023-05-10T03:34:46;5.67;;;3.63;;
41343;SDS011;27089;50.022;7.604;2023-05-10T03:37:13;6.33;;;3.17;;
41343;SDS011;27089;50.022;7.604;2023-05-10T03:39:40;3.97;;;3.23;;
41343;SDS011;27089;50.022;7.604;2023-05-10T03:42:07;8.33;;;4.70;;
41343;SDS011;27089;50.022;7.604;2023-05-10T03:44:36;6.23;;;3.77;;
41343;SDS011;27089;50.022;7.604;2023-05-10T03:47:05;4.67;;;3.67;;
41343;SDS011;27089;50.022;7.604;2023-05-10T03:49:32;5.30;;;3.40;;
41343;SDS011;27089;50.022;7.604;2023-05-10T03:51:59;5.13;;;3.63;;
41343;SDS011;27089;50.022;7.604;2023-05-10T03:54:26;6.20;;;3.90;;
41343;SDS011;27089;50.022;7.604;2023-05-10T03:56:53;7.47;;;3.97;;
41343;SDS011;27089;50.022;7.604;2023-05-10T03:59:19;5.00;;;4.00;;
41343;SDS011;27089;50.022;7.604;2023-05-10T04:01:46;5.23;;;3.43;;
41343;SDS011;27089;50.022;7.604;2023-05-10T04:04:15;5.83;;;3.60;;
41343;SDS011;27089;50.022;7.604;2023-05-10T04:06:43;7.47;;;3.77;;
41343;SDS011;27089;50.022;7.604;2023-05-10T04:09:10;8.97;;;3.73;;
41343;SDS011;27089;50.022;7.604;2023-05-10T04:11:37;4.40;;;3.57;;
41343;SDS011;27089;50.022;7.604;2023-05-10T04:14:04;4.47;;;3.30;;
41343;SDS011;27089;50.022;7.604;2023-05-10T04:16:31;7.33;;;3.27;;
41343;SDS011;27089;50.022;7.604;2023-05-10T04:18:58;5.63;;;2.90;;
41343;SDS011;27089;50.022;7.604;2023-05-10T04:21:26;6.53;;;3.50;;
41343;SDS011;27089;50.022;7.604;2023-05-10T04:23:53;5.83;;;3.63;;
41343;SDS011;27089;50.022;7.604;2023-05-10T04:26:20;5.53;;;3.40;;
41343;SDS011;27089;50.022;7.604;2023-05-10T04:28:47;5.93;;;3.67;;
41343;SDS011;27089;50.022;7.604;2023-05-10T04:31:14;6.47;;;3.60;;
41343;SDS011;27089;50.022;7.604;2023-05-10T04:33:41;6.33;;;4.13;;
41343;SDS011;27089;50.022;7.604;2023-05-10T04:36:08;6.57;;;3.27;;
41343;SDS011;27089;50.022;7.604;2023-05-10T04:38:36;5.23;;;3.20;;
41343;SDS011;27089;50.022;7.604;2023-05-10T04:41:03;8.40;;;3.57;;
41343;SDS011;27089;50.022;7.604;2023-05-10T04:43:31;7.27;;;3.87;;
41343;SDS011;27089;50.022;7.604;2023-05-10T04:45:58;5.50;;;3.53;;
41343;SDS011;27089;50.022;7.604;2023-05-10T04:48:25;5.60;;;3.40;;
41343;SDS011;27089;50.022;7.604;2023-05-10T04:50:52;5.50;;;3.77;;
41343;SDS011;27089;50.022;7.604;2023-05-10T04:53:19;7.33;;;4.13;;
41343;SDS011;27089;50.022;7.604;2023-05-10T04:55:47;7.60;;;4.33;;
41343;SDS011;27089;50.022;7.604;2023-05-10T04:58:14;5.73;;;3.73;;
41343;SDS011;27089;50.022;7.604;2023-05-10T05:00:41;4.70;;;3.03;;
41343;SDS011;27089;50.022;7.604;2023-05-10T05:03:09;4.53;;;3.17;;
41343;SDS011;27089;50.022;7.604;2023-05-10T05:05:36;4.37;;;2.93;;
41343;SDS011;27089;50.022;7.604;2023-05-10T05:08:03;5.30;;;2.87;;
41343;SDS011;27089;50.022;7.604;2023-05-10T05:10:30;5.17;;;3.17;;
41343;SDS011;27089;50.022;7.604;2023-05-10T05:12:58;4.10;;;2.90;;
41343;SDS011;27089;50.022;7.604;2023-05-10T05:15:25;5.03;;;2.70;;
41343;SDS011;27089;50.022;7.604;2023-05-10T05:17:52;5.57;;;2.73;;
41343;SDS011;27089;50.022;7.604;2023-05-10T05:20:20;5.17;;;2.80;;
41343;SDS011;27089;50.022;7.604;2023-05-10T05:22:47;6.37;;;2.77;;
41343;SDS011;27089;50.022;7.604;2023-05-10T05:25:14;3.73;;;2.40;;
41343;SDS011;27089;50.022;7.604;2023-05-10T05:27:41;4.17;;;2.20;;
41343;SDS011;27089;50.022;7.604;2023-05-10T05:30:10;4.50;;;2.23;;
41343;SDS011;27089;50.022;7.604;2023-05-10T05:32:37;4.13;;;2.23;;
41343;SDS011;27089;50.022;7.604;2023-05-10T05:35:04;3.40;;;2.20;;
41343;SDS011;27089;50.022;7.604;2023-05-10T05:37:32;5.17;;;2.10;;
41343;SDS011;27089;50.022;7.604;2023-05-10T05:39:59;5.17;;;2.00;;
41343;SDS011;27089;50.022;7.604;2023-05-10T05:42:26;4.10;;;2.07;;
41343;SDS011;27089;50.022;7.604;2023-05-10T05:44:54;2.67;;;1.90;;
41343;SDS011;27089;50.022;7.604;2023-05-10T05:47:22;2.23;;;1.50;;
41343;SDS011;27089;50.022;7.604;2023-05-10T05:49:49;3.47;;;1.90;;
41343;SDS011;27089;50.022;7.604;2023-05-10T05:52:16;3.30;;;1.80;;
41343;SDS011;27089;50.022;7.604;2023-05-10T05:54:43;7.47;;;4.63;;
41343;SDS011;27089;50.022;7.604;2023-05-10T05:57:09;4.37;;;2.17;;
41343;SDS011;27089;50.022;7.604;2023-05-10T05:59:36;5.73;;;1.97;;
41343;SDS011;27089;50.022;7.604;2023-05-10T06:02:07;4.17;;;2.07;;
41343;SDS011;27089;50.022;7.604;2023-05-10T06:04:35;2.83;;;2.00;;
41343;SDS011;27089;50.022;7.604;2023-05-10T06:07:02;2.73;;;2.13;;
41343;SDS011;27089;50.022;7.604;2023-05-10T06:09:29;8.13;;;3.80;;
41343;SDS011;27089;50.022;7.604;2023-05-10T06:11:56;3.77;;;3.23;;
41343;SDS011;27089;50.022;7.604;2023-05-10T06:14:23;4.83;;;4.10;;
41343;SDS011;27089;50.022;7.604;2023-05-10T06:16:50;3.63;;;2.50;;
41343;SDS011;27089;50.022;7.604;2023-05-10T06:19:17;4.53;;;2.90;;
41343;SDS011;27089;50.022;7.604;2023-05-10T06:21:45;4.40;;;2.50;;
41343;SDS011;27089;50.022;7.604;2023-05-10T06:24:12;4.43;;;2.07;;
41343;SDS011;27089;50.022;7.604;2023-05-10T06:26:39;8.10;;;2.00;;
41343;SDS011;27089;50.022;7.604;2023-05-10T06:29:06;5.20;;;2.10;;
41343;SDS011;27089;50.022;7.604;2023-05-10T06:31:33;4.77;;;1.90;;
41343;SDS011;27089;50.022;7.604;2023-05-10T06:34:00;7.23;;;2.03;;
41343;SDS011;27089;50.022;7.604;2023-05-10T06:36:27;3.93;;;2.40;;
41343;SDS011;27089;50.022;7.604;2023-05-10T06:38:55;4.33;;;2.20;;
41343;SDS011;27089;50.022;7.604;2023-05-10T06:41:22;3.80;;;1.97;;
41343;SDS011;27089;50.022;7.604;2023-05-10T06:43:49;5.90;;;2.87;;
41343;SDS011;27089;50.022;7.604;2023-05-10T06:46:16;7.23;;;3.33;;
41343;SDS011;27089;50.022;7.604;2023-05-10T06:48:43;5.90;;;2.20;;
41343;SDS011;27089;50.022;7.604;2023-05-10T06:51:09;3.13;;;2.03;;
41343;SDS011;27089;50.022;7.604;2023-05-10T06:53:36;3.83;;;2.20;;
41343;SDS011;27089;50.022;7.604;2023-05-10T06:56:05;3.13;;;2.20;;
41343;SDS011;27089;50.022;7.604;2023-05-10T06:58:32;4.67;;;2.37;;
41343;SDS011;27089;50.022;7.604;2023-05-10T07:01:02;4.50;;;2.13;;
41343;SDS011;27089;50.022;7.604;2023-05-10T07:03:30;2.60;;;1.70;;
41343;SDS011;27089;50.022;7.604;2023-05-10T07:05:59;2.83;;;2.03;;
41343;SDS011;27089;50.022;7.604;2023-05-10T07:08:29;5.63;;;2.20;;
41343;SDS011;27089;50.022;7.604;2023-05-10T07:10:59;5.90;;;2.10;;
41343;SDS011;27089;50.022;7.604;2023-05-10T07:13:28;2.90;;;1.60;;
41343;SDS011;27089;50.022;7.604;2023-05-10T07:15:55;3.00;;;1.90;;
41343;SDS011;27089;50.022;7.604;2023-05-10T07:18:22;4.33;;;1.80;;
41343;SDS011;27089;50.022;7.604;2023-05-10T07:20:49;3.93;;;1.60;;
41343;SDS011;27089;50.022;7.604;2023-05-10T07:23:16;3.43;;;1.70;;
41343;SDS011;27089;50.022;7.604;2023-05-10T07:25:44;2.43;;;1.37;;
41343;SDS011;27089;50.022;7.604;2023-05-10T07:28:12;3.33;;;1.33;;
41343;SDS011;27089;50.022;7.604;2023-05-10T07:30:41;1.40;;;1.20;;
41343;SDS011;27089;50.022;7.604;2023-05-10T07:33:08;1.70;;;1.57;;
41343;SDS011;27089;50.022;7.604;2023-05-10T07:35:36;1.47;;;1.30;;
41343;SDS011;27089;50.022;7.604;2023-05-10T07:38:04;2.23;;;1.20;;
41343;SDS011;27089;50.022;7.604;2023-05-10T07:40:31;3.13;;;1.60;;
41343;SDS011;27089;50.022;7.604;2023-05-10T07:42:58;1.67;;;0.93;;
41343;SDS011;27089;50.022;7.604;2023-05-10T07:45:26;1.00;;;0.90;;
41343;SDS011;27089;50.022;7.604;2023-05-10T07:47:55;1.27;;;1.00;;
41343;SDS011;27089;50.022;7.604;2023-05-10T07:50:22;4.10;;;2.60;;
41343;SDS011;27089;50.022;7.604;2023-05-10T07:52:49;2.63;;;1.70;;
41343;SDS011;27089;50.022;7.604;2023-05-10T07:55:16;1.93;;;1.40;;
41343;SDS011;27089;50.022;7.604;2023-05-10T07:57:46;2.30;;;1.47;;
41343;SDS011;27089;50.022;7.604;2023-05-10T08:00:13;2.00;;;1.53;;
41343;SDS011;27089;50.022;7.604;2023-05-10T08:02:44;2.53;;;1.20;;
41343;SDS011;27089;50.022;7.604;2023-05-10T08:05:12;1.83;;;1.20;;
41343;SDS011;27089;50.022;7.604;2023-05-10T08:07:39;1.53;;;1.33;;
41343;SDS011;27089;50.022;7.604;2023-05-10T08:10:08;1.73;;;0.80;;
41343;SDS011;27089;50.022;7.604;2023-05-10T08:12:36;3.37;;;0.60;;
41343;SDS011;27089;50.022;7.604;2023-05-10T08:15:04;1.20;;;0.60;;
41343;SDS011;27089;50.022;7.604;2023-05-10T08:17:31;0.70;;;0.60;;
41343;SDS011;27089;50.022;7.604;2023-05-10T08:19:58;0.73;;;0.60;;
41343;SDS011;27089;50.022;7.604;2023-05-10T08:22:27;0.77;;;0.50;;
41343;SDS011;27089;50.022;7.604;2023-05-10T08:24:54;1.70;;;0.70;;
41343;SDS011;27089;50.022;7.604;2023-05-10T08:27:21;1.50;;;0.60;;
41343;SDS011;27089;50.022;7.604;2023-05-10T08:29:48;1.03;;;0.50;;
41343;SDS011;27089;50.022;7.604;2023-05-10T08:32:14;0.70;;;0.60;;
41343;SDS011;27089;50.022;7.604;2023-05-10T08:34:41;0.40;;;0.40;;
41343;SDS011;27089;50.022;7.604;2023-05-10T08:37:08;1.73;;;0.50;;
41343;SDS011;27089;50.022;7.604;2023-05-10T08:39:39;1.23;;;0.40;;
41343;SDS011;27089;50.022;7.604;2023-05-10T08:42:06;1.87;;;0.70;;
41343;SDS011;27089;50.022;7.604;2023-05-10T08:44:35;1.00;;;0.67;;
41343;SDS011;27089;50.022;7.604;2023-05-10T08:47:04;0.50;;;0.50;;
41343;SDS011;27089;50.022;7.604;2023-05-10T08:49:32;1.70;;;1.00;;
41343;SDS011;27089;50.022;7.604;2023-05-10T08:52:01;0.52;;;0.52;;
41343;SDS011;27089;50.022;7.604;2023-05-10T08:54:31;1.58;;;0.77;;
41343;SDS011;27089;50.022;7.604;2023-05-10T08:57:00;0.60;;;0.60;;
41343;SDS011;27089;50.022;7.604;2023-05-10T08:59:27;1.52;;;0.93;;
41343;SDS011;27089;50.022;7.604;2023-05-10T09:01:56;0.60;;;0.52;;
41343;SDS011;27089;50.022;7.604;2023-05-10T09:04:24;1.00;;;0.40;;
41343;SDS011;27089;50.022;7.604;2023-05-10T09:06:51;2.03;;;0.52;;
41343;SDS011;27089;50.022;7.604;2023-05-10T09:09:18;2.05;;;1.08;;
41343;SDS011;27089;50.022;7.604;2023-05-10T09:11:47;2.80;;;1.73;;
41343;SDS011;27089;50.022;7.604;2023-05-10T09:14:15;4.38;;;1.35;;
41343;SDS011;27089;50.022;7.604;2023-05-10T09:16:43;0.90;;;0.77;;
41343;SDS011;27089;50.022;7.604;2023-05-10T09:19:10;0.68;;;0.68;;
41343;SDS011;27089;50.022;7.604;2023-05-10T09:21:38;1.77;;;1.10;;
41343;SDS011;27089;50.022;7.604;2023-05-10T09:24:05;1.63;;;0.88;;
41343;SDS011;27089;50.022;7.604;2023-05-10T09:26:33;2.88;;;0.80;;
41343;SDS011;27089;50.022;7.604;2023-05-10T09:29:01;3.22;;;0.80;;
41343;SDS011;27089;50.022;7.604;2023-05-10T09:34:16;0.77;;;0.77;;
41343;SDS011;27089;50.022;7.604;2023-05-10T09:36:54;0.70;;;0.70;;
41343;SDS011;27089;50.022;7.604;2023-05-10T09:39:29;5.93;;;0.77;;
41343;SDS011;27089;50.022;7.604;2023-05-10T09:41:58;1.15;;;0.82;;
41343;SDS011;27089;50.022;7.604;2023-05-10T09:44:25;2.28;;;0.60;;
41343;SDS011;27089;50.022;7.604;2023-05-10T09:46:54;1.10;;;0.70;;
41343;SDS011;27089;50.022;7.604;2023-05-10T09:49:21;1.50;;;0.80;;
41343;SDS011;27089;50.022;7.604;2023-05-10T09:51:57;1.00;;;0.73;;
41343;SDS011;27089;50.022;7.604;2023-05-10T09:54:26;0.50;;;0.50;;
41343;SDS011;27089;50.022;7.604;2023-05-10T09:56:53;1.40;;;0.50;;
41343;SDS011;27089;50.022;7.604;2023-05-10T09:59:20;0.57;;;0.57;;
41343;SDS011;27089;50.022;7.604;2023-05-10T10:01:49;1.02;;;0.60;;
41343;SDS011;27089;50.022;7.604;2023-05-10T10:04:17;2.78;;;0.40;;
41343;SDS011;27089;50.022;7.604;2023-05-10T10:06:46;0.75;;;0.57;;
41343;SDS011;27089;50.022;7.604;2023-05-10T10:09:24;0.40;;;0.35;;
41343;SDS011;27089;50.022;7.604;2023-05-10T10:11:53;1.05;;;0.50;;
41343;SDS011;27089;50.022;7.604;2023-05-10T10:14:21;0.50;;;0.50;;
41343;SDS011;27089;50.022;7.604;2023-05-10T10:16:48;0.70;;;0.50;;
41343;SDS011;27089;50.022;7.604;2023-05-10T10:19:17;4.05;;;0.65;;
41343;SDS011;27089;50.022;7.604;2023-05-10T10:21:45;0.40;;;0.40;;
41343;SDS011;27089;50.022;7.604;2023-05-10T10:24:12;1.23;;;0.60;;
41343;SDS011;27089;50.022;7.604;2023-05-10T10:26:39;0.65;;;0.40;;
41343;SDS011;27089;50.022;7.604;2023-05-10T10:29:11;0.63;;;0.50;;
41343;SDS011;27089;50.022;7.604;2023-05-10T10:31:47;0.47;;;0.40;;
41343;SDS011;27089;50.022;7.604;2023-05-10T10:34:24;1.63;;;0.47;;
41343;SDS011;27089;50.022;7.604;2023-05-10T10:36:53;0.50;;;0.40;;
41343;SDS011;27089;50.022;7.604;2023-05-10T10:39:21;0.70;;;0.57;;
41343;SDS011;27089;50.022;7.604;2023-05-10T10:41:50;2.97;;;0.80;;
41343;SDS011;27089;50.022;7.604;2023-05-10T10:44:24;0.85;;;0.50;;
41343;SDS011;27089;50.022;7.604;2023-05-10T10:50:05;1.35;;;1.23;;
41343;SDS011;27089;50.022;7.604;2023-05-10T10:52:33;1.00;;;0.70;;
41343;SDS011;27089;50.022;7.604;2023-05-10T10:55:02;1.42;;;0.75;;
41343;SDS011;27089;50.022;7.604;2023-05-10T10:57:32;1.40;;;0.50;;
41343;SDS011;27089;50.022;7.604;2023-05-10T11:00:24;0.80;;;0.45;;
41343;SDS011;27089;50.022;7.604;2023-05-10T11:02:54;2.05;;;0.65;;
41343;SDS011;27089;50.022;7.604;2023-05-10T11:05:25;0.88;;;0.30;;
41343;SDS011;27089;50.022;7.604;2023-05-10T11:08:11;1.85;;;0.40;;
41343;SDS011;27089;50.022;7.604;2023-05-10T11:10:53;0.63;;;0.50;;
41343;SDS011;27089;50.022;7.604;2023-05-10T11:13:33;0.63;;;0.45;;
41343;SDS011;27089;50.022;7.604;2023-05-10T11:16:10;2.03;;;1.08;;
41343;SDS011;27089;50.022;7.604;2023-05-10T11:18:52;2.67;;;1.10;;
41343;SDS011;27089;50.022;7.604;2023-05-10T11:21:22;3.42;;;1.88;;
41343;SDS011;27089;50.022;7.604;2023-05-10T11:23:49;1.55;;;1.10;;
41343;SDS011;27089;50.022;7.604;2023-05-10T11:26:17;7.88;;;6.97;;
41343;SDS011;27089;50.022;7.604;2023-05-10T11:28:48;7.72;;;5.70;;
41343;SDS011;27089;50.022;7.604;2023-05-10T11:31:16;3.17;;;2.50;;
41343;SDS011;27089;50.022;7.604;2023-05-10T11:33:44;2.45;;;1.67;;
41343;SDS011;27089;50.022;7.604;2023-05-10T11:36:11;1.58;;;1.00;;
41343;SDS011;27089;50.022;7.604;2023-05-10T11:38:40;1.92;;;0.90;;
41343;SDS011;27089;50.022;7.604;2023-05-10T11:41:08;1.30;;;0.73;;
41343;SDS011;27089;50.022;7.604;2023-05-10T11:43:36;0.65;;;0.50;;
41343;SDS011;27089;50.022;7.604;2023-05-10T11:46:04;0.70;;;0.50;;
41343;SDS011;27089;50.022;7.604;2023-05-10T11:48:31;1.27;;;0.60;;
41343;SDS011;27089;50.022;7.604;2023-05-10T11:51:00;0.73;;;0.70;;
41343;SDS011;27089;50.022;7.604;2023-05-10T11:53:27;1.70;;;0.70;;
41343;SDS011;27089;50.022;7.604;2023-05-10T11:55:58;1.02;;;0.93;;
41343;SDS011;27089;50.022;7.604;2023-05-10T11:58:29;2.05;;;0.70;;
41343;SDS011;27089;50.022;7.604;2023-05-10T12:00:57;1.00;;;0.90;;
41343;SDS011;27089;50.022;7.604;2023-05-10T12:03:24;2.58;;;0.77;;
41343;SDS011;27089;50.022;7.604;2023-05-10T12:05:52;1.63;;;1.08;;
41343;SDS011;27089;50.022;7.604;2023-05-10T12:08:20;1.10;;;1.00;;
41343;SDS011;27089;50.022;7.604;2023-05-10T12:10:48;2.28;;;1.10;;
41343;SDS011;27089;50.022;7.604;2023-05-10T12:13:17;2.20;;;1.48;;
41343;SDS011;27089;50.022;7.604;2023-05-10T12:15:46;1.27;;;1.00;;
41343;SDS011;27089;50.022;7.604;2023-05-10T12:18:13;5.32;;;2.30;;
41343;SDS011;27089;50.022;7.604;2023-05-10T12:20:40;4.32;;;3.92;;
41343;SDS011;27089;50.022;7.604;2023-05-10T12:23:08;3.35;;;2.40;;
41343;SDS011;27089;50.022;7.604;2023-05-10T12:25:36;5.55;;;5.00;;
41343;SDS011;27089;50.022;7.604;2023-05-10T12:28:05;5.00;;;4.35;;
41343;SDS011;27089;50.022;7.604;2023-05-10T12:30:34;2.35;;;1.38;;
41343;SDS011;27089;50.022;7.604;2023-05-10T12:33:02;3.38;;;3.13;;
41343;SDS011;27089;50.022;7.604;2023-05-10T12:35:42;14.70;;;13.20;;
41343;SDS011;27089;50.022;7.604;2023-05-10T12:38:26;3.83;;;3.00;;
41343;SDS011;27089;50.022;7.604;2023-05-10T12:40:55;2.50;;;2.17;;
41343;SDS011;27089;50.022;7.604;2023-05-10T12:43:23;2.35;;;1.95;;
41343;SDS011;27089;50.022;7.604;2023-05-10T12:45:51;1.60;;;1.48;;
41343;SDS011;27089;50.022;7.604;2023-05-10T12:48:18;2.78;;;1.23;;
41343;SDS011;27089;50.022;7.604;2023-05-10T12:50:45;1.27;;;0.80;;
41343;SDS011;27089;50.022;7.604;2023-05-10T12:53:12;1.98;;;1.23;;
41343;SDS011;27089;50.022;7.604;2023-05-10T12:55:40;1.40;;;1.30;;
41343;SDS011;27089;50.022;7.604;2023-05-10T12:58:07;2.53;;;1.02;;
41343;SDS011;27089;50.022;7.604;2023-05-10T13:00:34;2.90;;;1.25;;
41343;SDS011;27089;50.022;7.604;2023-05-10T13:03:04;2.08;;;1.40;;
41343;SDS011;27089;50.022;7.604;2023-05-10T13:05:31;2.42;;;1.50;;
41343;SDS011;27089;50.022;7.604;2023-05-10T13:07:58;2.75;;;1.10;;
41343;SDS011;27089;50.022;7.604;2023-05-10T13:10:25;3.28;;;1.80;;
41343;SDS011;27089;50.022;7.604;2023-05-10T13:12:52;3.35;;;1.40;;
41343;SDS011;27089;50.022;7.604;2023-05-10T13:15:19;2.35;;;1.58;;
41343;SDS011;27089;50.022;7.604;2023-05-10T13:17:46;3.50;;;1.40;;
41343;SDS011;27089;50.022;7.604;2023-05-10T13:20:15;1.67;;;0.90;;
41343;SDS011;27089;50.022;7.604;2023-05-10T13:22:42;2.60;;;0.80;;
41343;SDS011;27089;50.022;7.604;2023-05-10T13:25:10;1.52;;;1.17;;
41343;SDS011;27089;50.022;7.604;2023-05-10T13:27:37;1.58;;;0.70;;
41343;SDS011;27089;50.022;7.604;2023-05-10T13:30:06;1.88;;;0.70;;
41343;SDS011;27089;50.022;7.604;2023-05-10T13:32:33;1.88;;;0.80;;
41343;SDS011;27089;50.022;7.604;2023-05-10T13:35:01;3.83;;;0.90;;
41343;SDS011;27089;50.022;7.604;2023-05-10T13:37:29;2.42;;;0.82;;
41343;SDS011;27089;50.022;7.604;2023-05-10T13:39:57;1.30;;;0.70;;
41343;SDS011;27089;50.022;7.604;2023-05-10T13:42:24;3.13;;;0.88;;
41343;SDS011;27089;50.022;7.604;2023-05-10T13:44:51;2.92;;;0.90;;
41343;SDS011;27089;50.022;7.604;2023-05-10T13:47:18;2.40;;;1.00;;
41343;SDS011;27089;50.022;7.604;2023-05-10T13:49:46;2.08;;;1.10;;
41343;SDS011;27089;50.022;7.604;2023-05-10T13:52:13;2.10;;;1.20;;
41343;SDS011;27089;50.022;7.604;2023-05-10T13:54:42;1.25;;;1.00;;
41343;SDS011;27089;50.022;7.604;2023-05-10T13:57:09;1.35;;;0.90;;
41343;SDS011;27089;50.022;7.604;2023-05-10T13:59:37;2.58;;;0.90;;
41343;SDS011;27089;50.022;7.604;2023-05-10T14:02:04;2.25;;;0.90;;
41343;SDS011;27089;50.022;7.604;2023-05-10T14:04:32;3.60;;;1.10;;
41343;SDS011;27089;50.022;7.604;2023-05-10T14:07:00;1.27;;;0.90;;
41343;SDS011;27089;50.022;7.604;2023-05-10T14:09:27;2.60;;;1.00;;
41343;SDS011;27089;50.022;7.604;2023-05-10T14:11:56;3.20;;;0.93;;
41343;SDS011;27089;50.022;7.604;2023-05-10T14:14:23;2.83;;;0.90;;
41343;SDS011;27089;50.022;7.604;2023-05-10T14:16:51;3.38;;;0.90;;
41343;SDS011;27089;50.022;7.604;2023-05-10T14:19:17;1.23;;;0.98;;
41343;SDS011;27089;50.022;7.604;2023-05-10T14:21:44;4.00;;;0.95;;
41343;SDS011;27089;50.022;7.604;2023-05-10T14:24:11;1.48;;;0.90;;
41343;SDS011;27089;50.022;7.604;2023-05-10T14:26:38;2.42;;;0.98;;
41343;SDS011;27089;50.022;7.604;2023-05-10T14:29:07;3.80;;;1.15;;
41343;SDS011;27089;50.022;7.604;2023-05-10T14:31:34;1.75;;;0.90;;
41343;SDS011;27089;50.022;7.604;2023-05-10T14:34:01;1.60;;;0.93;;
41343;SDS011;27089;50.022;7.604;2023-05-10T14:36:28;5.05;;;0.98;;
41343;SDS011;27089;50.022;7.604;2023-05-10T14:38:55;4.13;;;0.90;;
41343;SDS011;27089;50.022;7.604;2023-05-10T14:41:22;3.17;;;1.00;;
41343;SDS011;27089;50.022;7.604;2023-05-10T14:43:49;1.90;;;0.98;;
41343;SDS011;27089;50.022;7.604;2023-05-10T14:46:18;1.50;;;1.00;;
41343;SDS011;27089;50.022;7.604;2023-05-10T14:48:45;4.68;;;0.90;;
41343;SDS011;27089;50.022;7.604;2023-05-10T14:51:12;2.83;;;1.00;;
41343;SDS011;27089;50.022;7.604;2023-05-10T14:53:39;3.35;;;0.90;;
41343;SDS011;27089;50.022;7.604;2023-05-10T14:56:06;1.80;;;1.00;;
41343;SDS011;27089;50.022;7.604;2023-05-10T14:58:33;1.75;;;1.05;;
41343;SDS011;27089;50.022;7.604;2023-05-10T15:01:00;1.67;;;1.00;;
41343;SDS011;27089;50.022;7.604;2023-05-10T15:03:29;1.77;;;0.80;;
41343;SDS011;27089;50.022;7.604;2023-05-10T15:05:56;2.85;;;0.93;;
41343;SDS011;27089;50.022;7.604;2023-05-10T15:08:23;2.85;;;1.08;;
41343;SDS011;27089;50.022;7.604;2023-05-10T15:10:50;2.78;;;1.10;;